Time;durP1;ratioP1;P1;durP2;ratioP2;P2;SDS_P1;SDS_P2;PMS_P1;PMS_P2;Temp;Humidity;BMP_temperature;BMP_pressure;BME280_temperature;BME280_humidity;BME280_pressure;Samples;Min_cycle;Max_cycle;Signal;HPM_P1;HPM_P2
2022/07/28 00:00:32;;;;;;;7.35;5.68;;;25.30;92.40;;;;;;5057683;28;20039;-71
2022/07/28 00:02:58;;;;;;;7.20;6.30;;;25.30;92.30;;;;;;5056864;28;20079;-74
2022/07/28 00:05:24;;;;;;;7.13;5.88;;;25.30;92.50;;;;;;5066796;28;20028;-73
2022/07/28 00:07:49;;;;;;;6.45;5.72;;;25.20;92.50;;;;;;5060582;28;20024;-75
2022/07/28 00:10:15;;;;;;;7.85;6.00;;;25.10;92.40;;;;;;5062852;28;20029;-73
2022/07/28 00:12:41;;;;;;;6.78;5.80;;;25.10;92.50;;;;;;5059616;28;20041;-73
2022/07/28 00:15:07;;;;;;;8.20;6.05;;;25.10;92.50;;;;;;5061160;28;20057;-72
2022/07/28 00:17:32;;;;;;;6.63;5.78;;;25.10;92.50;;;;;;5059565;28;20068;-71
2022/07/28 00:19:58;;;;;;;7.75;5.72;;;25.10;92.70;;;;;;5064003;28;20044;-75
2022/07/28 00:22:24;;;;;;;6.68;5.88;;;25.10;92.60;;;;;;5059334;28;20032;-73
2022/07/28 00:24:49;;;;;;;7.68;6.10;;;25.10;92.70;;;;;;5064321;28;20032;-73
2022/07/28 00:27:16;;;;;;;10.18;6.18;;;25.10;92.50;;;;;;5063431;28;20021;-73
2022/07/28 00:29:42;;;;;;;8.43;5.35;;;25.10;92.70;;;;;;5063808;28;20029;-73
2022/07/28 00:32:09;;;;;;;6.65;5.90;;;25.10;92.70;;;;;;5061693;28;20372;-72
2022/07/28 00:34:37;;;;;;;5.55;4.95;;;25.10;92.90;;;;;;5061809;28;20025;-72
2022/07/28 00:37:05;;;;;;;9.30;6.10;;;25.10;93.10;;;;;;5065084;28;20029;-72
2022/07/28 00:39:31;;;;;;;6.22;5.57;;;25.10;93.00;;;;;;5063763;28;20029;-73
2022/07/28 00:41:57;;;;;;;8.32;5.55;;;25.10;93.00;;;;;;5059098;28;20390;-72
2022/07/28 00:44:23;;;;;;;6.20;5.60;;;25.10;92.90;;;;;;5063519;28;20020;-73
2022/07/28 00:46:49;;;;;;;6.82;5.95;;;25.00;92.90;;;;;;5057705;28;20123;-72
2022/07/28 00:49:15;;;;;;;6.28;5.68;;;25.00;93.10;;;;;;5062626;28;20024;-73
2022/07/28 00:51:41;;;;;;;7.35;6.13;;;25.00;92.90;;;;;;5059653;28;20589;-73
2022/07/28 00:54:07;;;;;;;6.20;5.50;;;25.00;93.10;;;;;;5061432;28;20028;-73
2022/07/28 00:56:33;;;;;;;7.28;5.93;;;25.00;92.90;;;;;;5060222;28;20056;-73
2022/07/28 00:58:59;;;;;;;6.22;5.55;;;25.00;93.00;;;;;;5058732;28;20021;-72
2022/07/28 01:01:25;;;;;;;10.32;5.95;;;25.00;93.10;;;;;;5058036;28;20021;-73
2022/07/28 01:03:58;;;;;;;8.52;5.80;;;25.00;93.00;;;;;;5053500;28;20024;-73
2022/07/28 01:06:47;;;;;;;8.45;5.82;;;25.00;93.00;;;;;;5065946;28;20058;-72
2022/07/28 01:09:38;;;;;;;9.25;5.72;;;25.00;93.00;;;;;;5053700;28;20031;-72
2022/07/28 01:12:17;;;;;;;7.32;5.72;;;25.10;93.10;;;;;;5051726;28;20032;-72
2022/07/28 01:14:57;;;;;;;6.78;5.55;;;25.10;93.20;;;;;;5061317;28;20025;-72
2022/07/28 01:17:43;;;;;;;8.05;5.82;;;25.00;93.00;;;;;;5061315;28;20029;-72
2022/07/28 01:20:29;;;;;;;9.85;5.53;;;25.10;93.00;;;;;;5059130;28;20130;-72
2022/07/28 01:23:12;;;;;;;9.18;5.50;;;25.10;93.20;;;;;;5059819;28;20056;-72
2022/07/28 01:26:06;;;;;;;6.32;5.60;;;25.00;93.10;;;;;;5063683;28;20039;-72
2022/07/28 01:28:53;;;;;;;6.70;5.47;;;25.10;93.30;;;;;;5054979;28;20048;-72
2022/07/28 01:31:24;;;;;;;8.70;6.03;;;25.00;93.00;;;;;;5059879;28;20069;-71
2022/07/28 01:33:59;;;;;;;8.52;5.72;;;25.00;93.10;;;;;;5060352;28;20103;-71
2022/07/28 01:36:32;;;;;;;17.40;6.18;;;25.00;93.30;;;;;;5065256;28;20038;-71
2022/07/28 01:39:00;;;;;;;11.85;6.13;;;25.00;93.20;;;;;;5059520;28;20028;-72
2022/07/28 01:41:28;;;;;;;9.00;6.05;;;25.00;93.10;;;;;;5059520;28;20024;-72
2022/07/28 01:43:59;;;;;;;7.55;5.82;;;25.00;93.40;;;;;;5058038;28;20027;-72
2022/07/28 01:46:26;;;;;;;6.53;5.55;;;25.00;93.30;;;;;;5059459;28;20046;-72
2022/07/28 01:48:53;;;;;;;7.10;6.30;;;25.00;93.40;;;;;;5060916;28;20264;-72
2022/07/28 01:51:20;;;;;;;10.45;6.03;;;25.00;93.50;;;;;;5063517;28;20036;-72
2022/07/28 01:53:50;;;;;;;8.30;5.78;;;24.90;93.50;;;;;;5058449;28;20394;-72
2022/07/28 01:56:18;;;;;;;10.18;5.60;;;24.90;93.70;;;;;;5058852;28;20103;-72
2022/07/28 01:58:47;;;;;;;6.60;5.60;;;24.90;93.50;;;;;;5058730;28;20029;-72
2022/07/28 02:01:14;;;;;;;8.57;5.78;;;24.90;93.80;;;;;;5058774;28;20040;-71
2022/07/28 02:03:41;;;;;;;9.88;5.88;;;24.90;93.90;;;;;;5061964;28;20036;-71
2022/07/28 02:06:09;;;;;;;7.68;5.75;;;24.80;93.80;;;;;;5063449;28;20032;-71
2022/07/28 02:08:37;;;;;;;10.90;5.80;;;24.80;94.10;;;;;;5061283;28;20031;-71
2022/07/28 02:13:48;;;;;;;6.85;5.70;;;24.80;94.30;;;;;;5059393;28;20617;-71
2022/07/28 02:16:19;;;;;;;6.80;5.60;;;24.80;94.40;;;;;;5058608;28;20479;-71
2022/07/28 02:18:47;;;;;;;9.07;6.68;;;24.70;94.50;;;;;;5059474;28;20052;-71
2022/07/28 02:21:15;;;;;;;8.38;5.60;;;24.60;94.70;;;;;;5058476;28;20044;-71
2022/07/28 02:23:46;;;;;;;6.63;5.93;;;24.70;94.80;;;;;;5060180;28;20094;-71
2022/07/28 02:26:15;;;;;;;8.50;5.67;;;24.60;95.00;;;;;;5057786;28;20028;-71
2022/07/28 02:28:42;;;;;;;7.97;5.80;;;24.60;95.20;;;;;;5059814;28;20581;-73
2022/07/28 02:31:15;;;;;;;8.68;5.55;;;24.50;95.30;;;;;;5057462;28;20049;-71
2022/07/28 02:33:42;;;;;;;6.05;5.45;;;24.50;95.30;;;;;;5061302;28;20439;-71
2022/07/28 02:36:18;;;;;;;8.00;6.00;;;24.50;95.40;;;;;;5063721;28;20036;-71
2022/07/28 02:38:48;;;;;;;9.85;6.43;;;24.40;95.70;;;;;;5059902;28;20028;-71
2022/07/28 02:41:26;;;;;;;10.27;6.13;;;24.30;95.90;;;;;;5054013;28;20021;-71
2022/07/28 02:43:56;;;;;;;9.07;5.90;;;24.30;96.10;;;;;;5052711;28;20142;-72
2022/07/28 02:46:31;;;;;;;7.80;6.00;;;24.30;96.40;;;;;;5057215;28;20027;-72
2022/07/28 02:49:03;;;;;;;7.70;5.97;;;24.20;96.50;;;;;;5061631;28;20498;-72
2022/07/28 02:51:30;;;;;;;;;;;24.20;96.70;;;;;;5055757;28;20402;-72
2022/07/28 02:53:57;;;;;;;7.25;5.72;;;24.10;96.80;;;;;;5061413;28;19915;-71
2022/07/28 02:56:24;;;;;;;7.28;6.07;;;24.10;97.00;;;;;;5058597;28;20029;-71
2022/07/28 02:58:51;;;;;;;6.47;5.82;;;24.00;96.90;;;;;;5057305;28;20043;-72
2022/07/28 03:01:18;;;;;;;10.68;5.53;;;24.00;97.30;;;;;;5058210;28;20487;-71
2022/07/28 03:03:46;;;;;;;13.80;6.25;;;24.00;96.90;;;;;;5061428;28;20051;-72
2022/07/28 03:06:16;;;;;;;6.13;5.63;;;23.90;97.30;;;;;;5066818;28;20033;-71
2022/07/28 03:08:42;;;;;;;7.80;5.97;;;23.90;97.40;;;;;;5059593;28;20102;-72
2022/07/28 03:11:09;;;;;;;8.90;6.15;;;23.90;97.40;;;;;;5058284;28;20082;-72
2022/07/28 03:13:36;;;;;;;11.63;6.28;;;23.90;97.50;;;;;;5060659;28;20040;-71
2022/07/28 03:16:03;;;;;;;10.30;5.72;;;23.90;97.60;;;;;;5063461;28;20025;-72
2022/07/28 03:18:28;;;;;;;10.02;6.28;;;23.80;97.60;;;;;;5056091;28;20031;-72
2022/07/28 03:20:55;;;;;;;12.88;6.13;;;23.80;97.70;;;;;;5057016;28;20127;-72
2022/07/28 03:23:27;;;;;;;7.32;5.90;;;23.80;97.90;;;;;;5058828;28;20027;-72
2022/07/28 03:25:56;;;;;;;7.07;6.43;;;23.80;97.90;;;;;;5061668;28;20030;-72
2022/07/28 03:28:23;;;;;;;6.88;6.10;;;23.80;97.90;;;;;;5060019;28;20518;-72
2022/07/28 03:30:59;;;;;;;6.32;5.68;;;23.70;97.80;;;;;;5056601;28;20021;-72
2022/07/28 03:33:25;;;;;;;8.93;6.13;;;23.70;97.90;;;;;;5060382;28;20083;-72
2022/07/28 03:35:55;;;;;;;7.30;5.82;;;23.70;98.00;;;;;;5050747;28;20029;-72
2022/07/28 03:38:28;;;;;;;9.80;5.68;;;23.70;98.00;;;;;;5058921;28;20024;-72
2022/07/28 03:40:55;;;;;;;6.57;5.95;;;23.70;98.00;;;;;;5063444;28;20058;-72
2022/07/28 03:43:25;;;;;;;11.52;5.65;;;23.70;98.10;;;;;;5066774;28;20070;-72
2022/07/28 03:45:50;;;;;;;6.45;5.55;;;23.70;98.20;;;;;;5061011;28;20323;-72
2022/07/28 03:48:16;;;;;;;9.15;5.85;;;23.70;98.30;;;;;;5064129;28;20060;-72
2022/07/28 03:50:42;;;;;;;7.50;5.65;;;23.70;98.30;;;;;;5060318;28;20025;-73
2022/07/28 03:53:34;;;;;;;9.13;5.90;;;23.70;98.20;;;;;;5062711;28;20492;-73
2022/07/28 03:56:02;;;;;;;7.60;5.60;;;23.70;98.30;;;;;;5061782;28;20380;-72
2022/07/28 03:58:28;;;;;;;10.32;5.88;;;23.80;98.40;;;;;;5063679;28;20441;-73
2022/07/28 04:00:53;;;;;;;6.80;5.70;;;23.70;98.40;;;;;;5060281;28;20032;-73
2022/07/28 04:03:20;;;;;;;7.68;5.65;;;23.70;98.40;;;;;;5072119;28;20021;-73
2022/07/28 04:05:46;;;;;;;7.97;6.53;;;23.70;98.20;;;;;;5065641;28;20033;-72
2022/07/28 04:08:12;;;;;;;18.02;5.70;;;23.70;98.30;;;;;;5060400;28;20055;-72
2022/07/28 04:10:38;;;;;;;7.18;5.38;;;23.70;98.40;;;;;;5066602;28;20479;-72
2022/07/28 04:13:04;;;;;;;7.78;5.65;;;23.70;98.20;;;;;;5063232;28;20040;-72
2022/07/28 04:15:31;;;;;;;6.47;5.63;;;23.80;98.50;;;;;;5059237;28;20490;-73
2022/07/28 04:17:58;;;;;;;6.60;5.53;;;23.80;98.50;;;;;;5061362;28;20031;-73
2022/07/28 04:20:25;;;;;;;10.85;5.30;;;23.80;98.30;;;;;;5067707;28;20132;-72
2022/07/28 04:22:52;;;;;;;6.80;5.50;;;23.80;98.40;;;;;;5059241;28;20108;-72
2022/07/28 04:25:22;;;;;;;6.68;5.43;;;23.80;98.20;;;;;;5067064;28;20024;-72
2022/07/28 04:27:48;;;;;;;7.45;5.45;;;23.90;98.20;;;;;;5060235;28;20033;-72
2022/07/28 04:30:16;;;;;;;7.15;5.18;;;23.90;98.30;;;;;;5061424;28;20383;-73
2022/07/28 04:32:47;;;;;;;7.40;5.40;;;23.90;98.40;;;;;;5068042;28;20041;-73
2022/07/28 04:35:14;;;;;;;9.18;6.35;;;23.90;98.40;;;;;;5063345;28;20556;-72
2022/07/28 04:37:40;;;;;;;7.07;5.25;;;23.90;98.50;;;;;;5060212;28;20032;-72
2022/07/28 04:40:08;;;;;;;8.60;5.40;;;23.90;98.30;;;;;;5063327;28;20083;-72
2022/07/28 04:42:35;;;;;;;10.77;5.88;;;24.00;98.30;;;;;;5054198;28;20124;-72
2022/07/28 04:45:01;;;;;;;8.27;5.30;;;24.00;98.10;;;;;;5058116;28;20075;-73
2022/07/28 04:47:28;;;;;;;7.43;5.25;;;24.00;98.20;;;;;;5057614;28;20025;-72
2022/07/28 04:49:54;;;;;;;6.75;5.32;;;24.10;98.30;;;;;;5063525;28;20036;-72
2022/07/28 04:52:20;;;;;;;7.93;5.13;;;24.10;98.30;;;;;;5058527;28;20033;-72
2022/07/28 04:54:46;;;;;;;10.23;5.60;;;24.10;98.20;;;;;;5062103;28;20063;-72
2022/07/28 04:57:12;;;;;;;7.78;5.63;;;24.10;98.20;;;;;;5061017;28;20086;-72
2022/07/28 04:59:38;;;;;;;9.30;5.85;;;24.10;97.80;;;;;;5061518;28;20049;-72
2022/07/28 05:02:04;;;;;;;7.97;5.32;;;24.20;98.30;;;;;;5060673;28;20028;-72
2022/07/28 05:04:30;;;;;;;5.65;4.90;;;24.20;98.00;;;;;;5059954;28;20476;-72
2022/07/28 05:06:56;;;;;;;7.35;5.00;;;24.20;98.60;;;;;;5064309;28;20037;-72
2022/07/28 05:09:22;;;;;;;8.60;5.38;;;24.20;98.20;;;;;;5063296;28;20025;-73
2022/07/28 05:11:49;;;;;;;8.35;5.35;;;24.30;97.90;;;;;;5049565;28;20037;-72
2022/07/28 05:14:14;;;;;;;9.25;5.57;;;24.30;98.10;;;;;;5060951;28;20021;-73
2022/07/28 05:16:40;;;;;;;7.45;5.22;;;24.30;97.90;;;;;;5066308;28;20098;-72
2022/07/28 05:19:09;;;;;;;6.05;4.93;;;24.30;98.10;;;;;;5059665;28;20411;-72
2022/07/28 05:21:38;;;;;;;8.75;5.22;;;24.40;97.60;;;;;;5059718;28;20040;-72
2022/07/28 05:24:04;;;;;;;7.20;5.20;;;24.40;97.20;;;;;;5060373;28;20078;-72
2022/07/28 05:26:31;;;;;;;7.85;5.07;;;24.50;97.20;;;;;;5057363;28;20025;-72
2022/07/28 05:28:57;;;;;;;5.25;4.75;;;24.50;96.90;;;;;;5062698;28;20588;-72
2022/07/28 05:31:22;;;;;;;7.95;5.35;;;24.60;96.70;;;;;;5059434;28;20041;-72
2022/07/28 05:33:48;;;;;;;7.40;5.10;;;24.60;96.20;;;;;;5063446;28;20094;-73
2022/07/28 05:36:14;;;;;;;6.80;4.85;;;24.60;96.00;;;;;;5063905;28;20033;-72
2022/07/28 05:38:39;;;;;;;6.47;5.03;;;24.70;96.70;;;;;;5061756;28;20055;-72
2022/07/28 05:41:05;;;;;;;6.05;4.95;;;24.70;95.90;;;;;;5063336;28;20067;-72
2022/07/28 05:43:32;;;;;;;7.80;4.95;;;24.80;95.90;;;;;;5060207;28;20138;-73
2022/07/28 05:45:58;;;;;;;6.63;5.22;;;24.90;95.50;;;;;;5057959;28;20049;-72
2022/07/28 05:48:23;;;;;;;6.20;5.00;;;24.90;95.60;;;;;;5061584;28;20067;-72
2022/07/28 05:50:50;;;;;;;10.20;5.00;;;24.90;95.60;;;;;;5058826;28;20498;-72
2022/07/28 05:53:16;;;;;;;5.90;5.10;;;25.00;95.50;;;;;;5060855;28;20498;-73
2022/07/28 05:55:43;;;;;;;5.18;4.50;;;25.00;95.00;;;;;;5058352;28;20078;-72
2022/07/28 05:58:08;;;;;;;6.63;4.63;;;25.10;95.10;;;;;;5062481;28;20540;-73
2022/07/28 06:00:34;;;;;;;12.60;4.65;;;25.10;94.70;;;;;;5057220;28;20033;-72
2022/07/28 06:03:03;;;;;;;8.90;4.47;;;25.20;94.60;;;;;;5064472;28;20387;-72
2022/07/28 06:05:30;;;;;;;5.00;4.53;;;25.20;94.40;;;;;;5063225;28;20028;-72
2022/07/28 06:07:57;;;;;;;6.88;4.43;;;25.30;94.10;;;;;;5058005;28;20115;-72
2022/07/28 06:10:25;;;;;;;6.88;4.82;;;25.30;93.90;;;;;;5059683;28;20032;-72
2022/07/28 06:12:53;;;;;;;6.30;4.82;;;25.40;93.90;;;;;;5057663;28;20036;-72
2022/07/28 06:15:26;;;;;;;4.88;4.30;;;25.40;93.70;;;;;;5060071;28;20025;-73
2022/07/28 06:17:54;;;;;;;4.88;4.35;;;25.50;93.70;;;;;;5056624;28;20044;-72
2022/07/28 06:20:24;;;;;;;10.23;4.43;;;25.50;93.30;;;;;;5059643;28;20045;-72
2022/07/28 06:22:53;;;;;;;8.25;4.22;;;25.60;93.50;;;;;;5063346;28;20048;-72
2022/07/28 06:25:24;;;;;;;7.63;4.45;;;25.60;93.30;;;;;;5059683;28;20055;-72
2022/07/28 06:27:52;;;;;;;6.57;4.20;;;25.60;93.80;;;;;;5058649;28;20031;-72
2022/07/28 06:30:18;;;;;;;6.95;4.63;;;25.60;93.10;;;;;;5060188;28;20017;-72
2022/07/28 06:32:46;;;;;;;8.05;4.32;;;25.70;93.10;;;;;;5058480;28;20430;-72
2022/07/28 06:35:15;;;;;;;4.57;4.10;;;25.70;92.90;;;;;;5065442;28;20028;-72
2022/07/28 06:37:47;;;;;;;5.90;4.90;;;25.80;92.70;;;;;;5062599;28;20533;-72
2022/07/28 06:40:14;;;;;;;6.15;4.75;;;25.90;92.80;;;;;;5056462;28;20036;-72
2022/07/28 06:42:42;;;;;;;11.55;4.78;;;25.90;92.20;;;;;;5055956;28;20558;-75
2022/07/28 06:45:09;;;;;;;11.50;4.80;;;26.00;92.10;;;;;;5062566;28;20372;-73
2022/07/28 06:47:34;;;;;;;6.82;4.30;;;26.00;91.90;;;;;;5058622;28;20025;-75
2022/07/28 06:50:00;;;;;;;6.03;4.43;;;26.10;91.80;;;;;;5061761;28;20056;-73
2022/07/28 06:52:26;;;;;;;6.35;4.78;;;26.10;91.70;;;;;;5059473;28;20731;-74
2022/07/28 06:54:52;;;;;;;6.78;4.32;;;26.20;91.60;;;;;;5057848;28;20029;-73
2022/07/28 06:57:20;;;;;;;4.88;4.13;;;26.30;91.30;;;;;;5056842;28;20033;-73
2022/07/28 06:59:46;;;;;;;6.70;4.20;;;26.30;91.50;;;;;;5061716;28;20494;-74
2022/07/28 07:02:13;;;;;;;6.47;4.40;;;26.40;91.30;;;;;;5061810;28;20044;-74
2022/07/28 07:04:38;;;;;;;7.15;4.63;;;26.40;91.90;;;;;;5059642;28;20026;-73
2022/07/28 07:07:05;;;;;;;8.90;4.65;;;26.40;91.60;;;;;;5062827;28;20076;-72
2022/07/28 07:09:30;;;;;;;9.65;4.72;;;26.50;91.60;;;;;;5059128;28;20091;-73
2022/07/28 07:11:56;;;;;;;6.05;4.22;;;26.50;91.30;;;;;;5056729;28;20479;-73
2022/07/28 07:14:22;;;;;;;8.13;4.50;;;26.60;90.90;;;;;;5062177;28;20028;-73
2022/07/28 07:16:52;;;;;;;6.72;4.50;;;26.60;90.90;;;;;;5051931;28;20032;-73
2022/07/28 07:19:19;;;;;;;7.22;4.63;;;26.70;90.70;;;;;;5062562;28;20025;-73
2022/07/28 07:21:45;;;;;;;5.13;4.40;;;26.80;90.60;;;;;;5068571;28;20025;-72
2022/07/28 07:24:11;;;;;;;5.03;4.25;;;26.80;90.00;;;;;;5060936;28;20060;-72
2022/07/28 07:26:37;;;;;;;6.53;4.88;;;26.80;90.30;;;;;;5062974;28;20063;-74
2022/07/28 07:29:03;;;;;;;6.65;4.40;;;26.80;90.10;;;;;;5062423;28;20033;-72
2022/07/28 07:31:30;;;;;;;5.70;4.03;;;26.80;90.20;;;;;;5060107;28;20048;-74
2022/07/28 07:33:56;;;;;;;9.88;4.30;;;26.90;90.40;;;;;;5063880;28;20055;-72
2022/07/28 07:36:22;;;;;;;5.07;4.50;;;26.90;90.20;;;;;;5066383;28;20021;-72
2022/07/28 07:38:50;;;;;;;5.30;4.47;;;27.00;90.10;;;;;;5061664;28;20029;-71
2022/07/28 07:41:17;;;;;;;4.57;4.15;;;27.10;89.70;;;;;;5058427;28;20468;-73
2022/07/28 07:43:43;;;;;;;6.55;4.32;;;27.10;90.00;;;;;;5066178;28;20446;-73
2022/07/28 07:46:09;;;;;;;5.45;4.38;;;27.20;89.60;;;;;;5060734;28;20387;-72
2022/07/28 07:48:35;;;;;;;6.25;4.10;;;27.20;88.50;;;;;;5063750;28;20028;-71
2022/07/28 07:51:00;;;;;;;4.93;4.43;;;27.20;88.30;;;;;;5061910;28;20401;-71
2022/07/28 07:53:26;;;;;;;9.75;4.85;;;27.30;89.30;;;;;;5062775;28;20032;-72
2022/07/28 07:55:52;;;;;;;5.05;4.28;;;27.30;89.00;;;;;;5060899;28;20033;-71
2022/07/28 07:58:18;;;;;;;5.40;4.75;;;27.40;88.70;;;;;;5062270;28;20247;-71
2022/07/28 08:00:44;;;;;;;6.40;4.70;;;27.40;88.90;;;;;;5065417;28;20032;-72
2022/07/28 08:03:09;;;;;;;5.68;4.43;;;27.50;88.60;;;;;;5067177;28;20546;-72
2022/07/28 08:05:35;;;;;;;5.50;4.50;;;27.50;88.80;;;;;;5065392;28;20029;-71
2022/07/28 08:08:01;;;;;;;4.50;4.07;;;27.60;89.20;;;;;;5060748;28;20028;-72
2022/07/28 08:10:27;;;;;;;7.03;4.00;;;27.60;88.40;;;;;;5066833;28;20039;-72
2022/07/28 08:12:52;;;;;;;5.70;4.60;;;27.70;88.40;;;;;;5061903;28;20115;-72
2022/07/28 08:15:18;;;;;;;4.82;4.38;;;27.70;88.20;;;;;;5062296;28;20499;-72
2022/07/28 08:17:43;;;;;;;5.07;4.50;;;27.80;88.40;;;;;;5060048;28;20106;-72
2022/07/28 08:20:09;;;;;;;5.30;4.80;;;27.90;87.50;;;;;;5069942;28;20139;-72
2022/07/28 08:22:47;;;;;;;5.50;4.65;;;28.00;87.90;;;;;;5060918;28;20124;-72
2022/07/28 08:25:13;;;;;;;4.88;4.47;;;28.00;86.80;;;;;;5052016;28;20040;-72
2022/07/28 08:27:39;;;;;;;5.40;4.90;;;28.10;87.00;;;;;;5058522;28;20040;-73
2022/07/28 08:30:08;;;;;;;6.40;4.93;;;28.10;86.80;;;;;;5056173;28;20025;-72
2022/07/28 08:32:34;;;;;;;9.73;4.82;;;28.20;87.20;;;;;;5067030;28;20042;-74
2022/07/28 08:34:59;;;;;;;4.95;4.40;;;28.20;86.40;;;;;;5056656;28;20025;-72
2022/07/28 08:37:25;;;;;;;6.10;4.45;;;28.30;86.40;;;;;;5058695;28;20423;-74
2022/07/28 08:39:51;;;;;;;5.97;5.07;;;28.30;86.20;;;;;;5058291;28;20490;-72
2022/07/28 08:42:42;;;;;;;7.05;4.85;;;28.40;86.20;;;;;;5058969;28;20032;-73
2022/07/28 08:45:10;;;;;;;8.60;5.40;;;28.50;86.20;;;;;;5053426;28;20075;-71
2022/07/28 08:47:37;;;;;;;7.28;4.65;;;28.50;85.80;;;;;;5058350;28;20361;-72
2022/07/28 08:50:03;;;;;;;6.93;4.82;;;28.60;84.60;;;;;;5063495;28;20032;-73
2022/07/28 08:52:32;;;;;;;4.57;4.18;;;28.70;84.90;;;;;;5058772;28;20040;-73
2022/07/28 08:55:05;;;;;;;5.50;4.93;;;28.70;85.00;;;;;;5063597;28;20099;-73
2022/07/28 08:57:34;;;;;;;6.13;4.50;;;28.80;84.90;;;;;;5063450;28;20535;-72
2022/07/28 09:00:01;;;;;;;4.65;4.25;;;28.90;84.20;;;;;;5058673;28;20492;-73
2022/07/28 09:02:28;;;;;;;5.07;4.47;;;29.00;84.90;;;;;;5062904;28;20333;-73
2022/07/28 09:04:55;;;;;;;6.20;4.50;;;29.00;84.60;;;;;;5056747;28;20025;-72
2022/07/28 09:07:22;;;;;;;4.70;4.40;;;29.00;84.30;;;;;;5058788;28;20029;-73
2022/07/28 09:09:49;;;;;;;5.18;4.25;;;29.00;84.00;;;;;;5062788;28;20379;-73
2022/07/28 09:12:15;;;;;;;5.18;4.60;;;29.10;83.90;;;;;;5062798;28;20041;-72
2022/07/28 09:14:41;;;;;;;5.47;4.68;;;29.20;84.60;;;;;;5063063;28;20035;-73
2022/07/28 09:17:07;;;;;;;4.95;4.47;;;29.20;84.30;;;;;;5058444;28;20041;-72
2022/07/28 09:19:33;;;;;;;6.40;4.47;;;29.30;83.80;;;;;;5062634;28;20077;-73
2022/07/28 09:21:59;;;;;;;6.15;4.57;;;29.40;83.10;;;;;;5058209;28;20105;-73
2022/07/28 09:24:36;;;;;;;4.88;4.45;;;29.50;83.50;;;;;;5063047;28;20021;-73
2022/07/28 09:27:08;;;;;;;8.98;4.90;;;29.50;82.30;;;;;;5058226;28;20033;-74
2022/07/28 09:29:34;;;;;;;;;;;29.50;82.90;;;;;;5063304;28;20171;-72
2022/07/28 09:32:00;;;;;;;5.38;4.60;;;29.60;82.80;;;;;;5059330;28;20290;-72
2022/07/28 09:34:26;;;;;;;5.07;4.53;;;29.60;82.30;;;;;;5060727;28;20040;-73
2022/07/28 09:36:52;;;;;;;4.38;3.97;;;29.70;82.20;;;;;;5065474;28;20025;-72
2022/07/28 09:39:32;;;;;;;7.75;5.00;;;29.70;82.00;;;;;;5062214;28;20037;-71
2022/07/28 09:41:58;;;;;;;9.50;4.47;;;29.80;82.00;;;;;;5049305;28;20025;-73
2022/07/28 09:44:27;;;;;;;4.97;4.45;;;29.90;81.70;;;;;;5058147;28;20107;-72
2022/07/28 09:46:55;;;;;;;5.93;4.20;;;30.00;81.50;;;;;;5065171;28;20025;-72
2022/07/28 09:49:21;;;;;;;5.05;4.63;;;30.10;80.60;;;;;;5062469;28;20025;-73
2022/07/28 09:52:02;;;;;;;4.78;4.25;;;30.10;80.60;;;;;;5057578;28;20040;-73
2022/07/28 09:54:28;;;;;;;6.13;4.47;;;30.10;80.90;;;;;;5061112;28;20024;-74
2022/07/28 09:56:54;;;;;;;4.72;4.30;;;30.20;81.20;;;;;;5057775;28;20447;-73
2022/07/28 09:59:20;;;;;;;6.30;4.70;;;30.30;80.00;;;;;;5057624;28;20115;-72
2022/07/28 10:01:58;;;;;;;7.35;4.80;;;30.20;80.30;;;;;;5063767;28;20031;-72
2022/07/28 10:04:38;;;;;;;7.35;4.25;;;30.30;80.60;;;;;;5058785;28;20056;-72
2022/07/28 10:07:10;;;;;;;8.48;4.28;;;30.40;79.50;;;;;;5063168;28;20029;-71
2022/07/28 10:09:37;;;;;;;8.63;4.60;;;30.50;79.00;;;;;;5060749;28;20037;-72
2022/07/28 10:12:17;;;;;;;4.80;4.40;;;30.50;80.70;;;;;;5056741;28;20085;-72
2022/07/28 10:14:45;;;;;;;4.95;4.20;;;30.70;79.40;;;;;;5057737;28;20032;-73
2022/07/28 10:17:20;;;;;;;5.07;4.38;;;30.70;78.60;;;;;;5062356;28;20100;-72
2022/07/28 10:19:46;;;;;;;6.40;4.47;;;30.80;78.50;;;;;;5061293;28;20504;-74
2022/07/28 10:22:13;;;;;;;4.82;4.32;;;30.90;78.10;;;;;;5061890;28;20273;-74
2022/07/28 10:24:40;;;;;;;4.45;4.05;;;30.90;76.10;;;;;;5058304;28;20025;-73
2022/07/28 10:27:07;;;;;;;4.50;4.05;;;31.00;76.50;;;;;;5063011;28;20037;-74
2022/07/28 10:29:33;;;;;;;5.43;4.28;;;31.00;76.20;;;;;;5061757;28;20111;-73
2022/07/28 10:32:05;;;;;;;4.60;4.20;;;31.00;76.20;;;;;;5060183;28;20104;-75
2022/07/28 10:34:34;;;;;;;4.90;4.20;;;31.10;77.10;;;;;;5059688;28;20143;-75
2022/07/28 10:37:03;;;;;;;5.03;4.43;;;31.20;76.30;;;;;;5063506;28;20013;-73
2022/07/28 10:39:38;;;;;;;5.10;4.43;;;31.30;76.60;;;;;;5060772;28;20364;-74
2022/07/28 10:42:07;;;;;;;5.32;4.25;;;31.50;76.10;;;;;;5057033;28;20031;-73
2022/07/28 10:44:33;;;;;;;7.63;4.55;;;31.60;75.00;;;;;;5056109;28;20028;-73
2022/07/28 10:47:00;;;;;;;6.50;4.00;;;31.70;75.30;;;;;;5055710;28;20026;-74
2022/07/28 10:49:26;;;;;;;5.75;4.30;;;31.80;74.40;;;;;;5062634;28;20184;-73
2022/07/28 10:51:53;;;;;;;4.57;4.18;;;31.90;74.40;;;;;;5060964;28;20028;-73
2022/07/28 10:54:28;;;;;;;4.05;3.75;;;32.00;74.80;;;;;;5063247;28;20123;-73
2022/07/28 10:57:02;;;;;;;4.68;4.28;;;32.10;73.90;;;;;;5053220;28;20024;-73
2022/07/28 10:59:52;;;;;;;4.50;4.10;;;32.10;73.50;;;;;;5065532;28;20108;-74
2022/07/28 11:02:44;;;;;;;4.75;3.95;;;32.10;73.20;;;;;;5066532;28;20031;-74
2022/07/28 11:05:37;;;;;;;5.60;4.45;;;32.10;72.20;;;;;;5059830;28;20035;-73
2022/07/28 11:08:15;;;;;;;6.32;4.38;;;32.20;72.80;;;;;;5061127;28;20049;-72
2022/07/28 11:10:59;;;;;;;6.93;4.18;;;32.30;73.10;;;;;;5066353;28;20036;-72
2022/07/28 11:13:30;;;;;;;7.32;4.43;;;32.40;72.40;;;;;;5063907;28;20054;-72
2022/07/28 11:16:19;;;;;;;5.80;4.20;;;32.60;72.00;;;;;;5066252;28;20025;-72
2022/07/28 11:19:05;;;;;;;4.38;3.97;;;32.80;72.80;;;;;;5061100;28;20025;-75
2022/07/28 11:21:31;;;;;;;6.57;3.97;;;33.00;72.50;;;;;;5063418;28;20052;-73
2022/07/28 11:23:57;;;;;;;5.22;4.25;;;33.10;69.70;;;;;;5065151;28;20036;-73
2022/07/28 11:26:23;;;;;;;5.50;3.88;;;33.20;71.10;;;;;;5062242;28;20032;-73
2022/07/28 11:29:04;;;;;;;7.45;4.10;;;33.40;70.50;;;;;;5062367;28;20091;-75
2022/07/28 11:31:45;;;;;;;6.25;4.40;;;33.70;70.70;;;;;;5065004;28;20020;-73
2022/07/28 11:34:16;;;;;;;4.88;3.95;;;34.00;69.10;;;;;;5044487;28;20040;-73
2022/07/28 11:37:02;;;;;;;;;;;34.20;68.60;;;;;;5066530;28;20391;-73
2022/07/28 11:39:35;;;;;;;8.18;4.00;;;34.40;67.40;;;;;;5064668;28;19951;-73
2022/07/28 11:42:31;;;;;;;5.53;4.22;;;34.60;66.80;;;;;;5060164;28;20399;-73
2022/07/28 11:45:23;;;;;;;5.18;4.30;;;34.60;67.50;;;;;;5064930;28;20483;-73
2022/07/28 11:48:11;;;;;;;4.38;3.80;;;34.60;68.00;;;;;;5061287;28;20028;-73
2022/07/28 11:50:37;;;;;;;3.72;3.42;;;34.80;66.40;;;;;;5060710;28;20032;-73
2022/07/28 11:53:03;;;;;;;4.55;3.50;;;34.80;67.40;;;;;;5062464;28;20538;-73
2022/07/28 11:55:29;;;;;;;4.20;3.60;;;34.80;66.40;;;;;;5067047;28;20024;-74
2022/07/28 11:57:55;;;;;;;4.97;3.50;;;34.70;66.00;;;;;;5062290;28;20040;-75
2022/07/28 12:00:22;;;;;;;5.32;3.63;;;34.70;66.00;;;;;;5058863;28;20025;-73
2022/07/28 12:02:48;;;;;;;6.65;3.97;;;34.70;66.60;;;;;;5065093;28;20131;-74
2022/07/28 12:05:16;;;;;;;4.28;3.40;;;34.70;64.80;;;;;;5062473;28;20578;-74
2022/07/28 12:07:51;;;;;;;4.95;3.50;;;34.50;65.80;;;;;;5064651;28;20032;-73
2022/07/28 12:10:29;;;;;;;4.13;3.72;;;34.40;64.50;;;;;;5057579;28;20648;-72
2022/07/28 12:13:03;;;;;;;4.57;3.65;;;35.00;66.70;;;;;;5058201;28;20424;-74
2022/07/28 12:15:29;;;;;;;4.85;3.92;;;36.80;63.60;;;;;;5061161;28;20029;-72
2022/07/28 12:17:57;;;;;;;5.32;3.60;;;38.60;61.10;;;;;;5059965;28;20025;-72
2022/07/28 12:20:30;;;;;;;3.80;3.50;;;39.20;58.90;;;;;;5060560;28;20048;-73
2022/07/28 12:23:06;;;;;;;6.75;3.45;;;40.20;57.80;;;;;;5060952;28;20029;-73
2022/07/28 12:25:41;;;;;;;4.93;3.33;;;41.40;55.90;;;;;;5058108;28;20491;-75
2022/07/28 12:28:26;;;;;;;7.05;3.78;;;40.90;55.30;;;;;;5063325;28;20494;-75
2022/07/28 12:30:52;;;;;;;8.60;3.70;;;40.40;64.50;;;;;;5062715;28;20080;-77
2022/07/28 12:33:22;;;;;;;6.50;3.67;;;39.50;66.40;;;;;;5066178;28;20087;-74
2022/07/28 12:35:56;;;;;;;5.55;3.65;;;38.50;68.30;;;;;;5057485;28;20028;-74
2022/07/28 12:38:26;;;;;;;8.05;3.92;;;36.60;73.40;;;;;;5062721;28;20025;-73
2022/07/28 12:40:53;;;;;;;6.70;3.93;;;36.20;74.00;;;;;;5063974;28;20025;-74
2022/07/28 12:43:25;;;;;;;6.43;4.10;;;36.20;75.60;;;;;;5071686;28;20020;-74
2022/07/28 12:45:51;;;;;;;4.00;3.47;;;36.60;74.60;;;;;;5059995;28;20036;-73
2022/07/28 12:48:19;;;;;;;4.80;3.58;;;36.70;71.10;;;;;;5063267;28;20149;-75
2022/07/28 12:50:49;;;;;;;4.95;3.53;;;37.10;71.40;;;;;;5058682;28;20029;-74
2022/07/28 12:53:21;;;;;;;6.63;4.28;;;37.40;67.80;;;;;;5059940;28;20102;-73
2022/07/28 12:55:47;;;;;;;5.70;3.35;;;38.20;66.30;;;;;;5065830;28;20021;-73
2022/07/28 12:58:28;;;;;;;5.43;3.35;;;38.70;65.40;;;;;;5059421;28;20375;-74
2022/07/28 13:00:54;;;;;;;4.80;3.63;;;38.80;63.70;;;;;;5062510;28;20024;-74